sensor_id;sensor_type;location;lat;lon;timestamp;temperature;humidity
43099;DHT22;28715;51.988;6.020;2023-04-01T00:00:56;11.50;99.90
43099;DHT22;28715;51.988;6.020;2023-04-01T00:03:23;11.40;99.90
43099;DHT22;28715;51.988;6.020;2023-04-01T00:05:49;11.40;99.90
43099;DHT22;28715;51.988;6.020;2023-04-01T00:08:16;11.40;99.90
43099;DHT22;28715;51.988;6.020;2023-04-01T00:10:42;11.40;99.90
43099;DHT22;28715;51.988;6.020;2023-04-01T00:13:08;11.50;99.90
43099;DHT22;28715;51.988;6.020;2023-04-01T00:15:34;11.50;99.90
43099;DHT22;28715;51.988;6.020;2023-04-01T00:18:00;11.40;99.90
43099;DHT22;28715;51.988;6.020;2023-04-01T00:20:26;11.40;99.90
43099;DHT22;28715;51.988;6.020;2023-04-01T00:22:52;11.40;99.90
43099;DHT22;28715;51.988;6.020;2023-04-01T00:25:18;11.40;99.90
43099;DHT22;28715;51.988;6.020;2023-04-01T00:27:44;11.50;99.90
43099;DHT22;28715;51.988;6.020;2023-04-01T00:30:10;11.40;99.90
43099;DHT22;28715;51.988;6.020;2023-04-01T00:32:36;11.50;99.90
43099;DHT22;28715;51.988;6.020;2023-04-01T00:35:02;11.50;99.90
43099;DHT22;28715;51.988;6.020;2023-04-01T00:37:28;11.40;99.90
43099;DHT22;28715;51.988;6.020;2023-04-01T00:39:54;11.40;99.90
43099;DHT22;28715;51.988;6.020;2023-04-01T00:42:20;11.40;99.90
43099;DHT22;28715;51.988;6.020;2023-04-01T00:44:54;11.50;99.90
43099;DHT22;28715;51.988;6.020;2023-04-01T00:47:21;11.50;99.90
43099;DHT22;28715;51.988;6.020;2023-04-01T00:49:50;11.50;99.90
43099;DHT22;28715;51.988;6.020;2023-04-01T00:52:20;11.50;99.90
43099;DHT22;28715;51.988;6.020;2023-04-01T00:54:50;11.60;99.90
43099;DHT22;28715;51.988;6.020;2023-04-01T00:59:46;11.60;99.90
43099;DHT22;28715;51.988;6.020;2023-04-01T01:02:14;11.60;99.90
43099;DHT22;28715;51.988;6.020;2023-04-01T01:04:40;11.60;99.90
43099;DHT22;28715;51.988;6.020;2023-04-01T01:09:55;11.60;99.90
43099;DHT22;28715;51.988;6.020;2023-04-01T01:20:42;11.60;99.90
43099;DHT22;28715;51.988;6.020;2023-04-01T01:28:52;11.60;99.90
43099;DHT22;28715;51.988;6.020;2023-04-01T01:36:37;11.70;99.90
43099;DHT22;28715;51.988;6.020;2023-04-01T01:39:05;11.70;99.90
43099;DHT22;28715;51.988;6.020;2023-04-01T01:41:35;11.70;99.90
43099;DHT22;28715;51.988;6.020;2023-04-01T01:44:03;11.70;99.90
43099;DHT22;28715;51.988;6.020;2023-04-01T01:46:31;11.70;99.90
43099;DHT22;28715;51.988;6.020;2023-04-01T01:48:57;11.70;99.90
43099;DHT22;28715;51.988;6.020;2023-04-01T01:51:26;11.70;99.90
43099;DHT22;28715;51.988;6.020;2023-04-01T01:53:52;11.60;99.90
43099;DHT22;28715;51.988;6.020;2023-04-01T01:56:20;11.60;99.90
43099;DHT22;28715;51.988;6.020;2023-04-01T01:58:49;11.70;99.90
43099;DHT22;28715;51.988;6.020;2023-04-01T02:01:20;11.70;99.90
43099;DHT22;28715;51.988;6.020;2023-04-01T02:03:48;11.70;99.90
43099;DHT22;28715;51.988;6.020;2023-04-01T02:06:18;11.70;99.90
43099;DHT22;28715;51.988;6.020;2023-04-01T02:08:55;11.70;99.90
43099;DHT22;28715;51.988;6.020;2023-04-01T02:11:28;11.70;99.90
43099;DHT22;28715;51.988;6.020;2023-04-01T02:14:01;11.70;99.90
43099;DHT22;28715;51.988;6.020;2023-04-01T02:16:33;11.80;99.90
43099;DHT22;28715;51.988;6.020;2023-04-01T02:19:01;11.80;99.90
43099;DHT22;28715;51.988;6.020;2023-04-01T02:21:31;11.80;99.90
43099;DHT22;28715;51.988;6.020;2023-04-01T02:23:58;11.80;99.90
43099;DHT22;28715;51.988;6.020;2023-04-01T02:26:26;11.90;99.90
43099;DHT22;28715;51.988;6.020;2023-04-01T02:28:54;11.80;99.90
43099;DHT22;28715;51.988;6.020;2023-04-01T02:31:20;11.80;99.90
43099;DHT22;28715;51.988;6.020;2023-04-01T02:33:47;11.80;99.90
43099;DHT22;28715;51.988;6.020;2023-04-01T02:36:14;11.80;99.90
43099;DHT22;28715;51.988;6.020;2023-04-01T02:38:41;11.80;99.90
43099;DHT22;28715;51.988;6.020;2023-04-01T02:41:07;11.80;99.90
43099;DHT22;28715;51.988;6.020;2023-04-01T02:43:32;11.80;99.90
43099;DHT22;28715;51.988;6.020;2023-04-01T02:45:58;11.80;99.90
43099;DHT22;28715;51.988;6.020;2023-04-01T02:48:24;11.80;99.90
43099;DHT22;28715;51.988;6.020;2023-04-01T02:50:49;11.80;99.90
43099;DHT22;28715;51.988;6.020;2023-04-01T02:53:15;11.80;99.90
43099;DHT22;28715;51.988;6.020;2023-04-01T02:55:41;11.80;99.90
43099;DHT22;28715;51.988;6.020;2023-04-01T02:58:07;11.80;99.90
43099;DHT22;28715;51.988;6.020;2023-04-01T03:00:32;11.80;99.90
43099;DHT22;28715;51.988;6.020;2023-04-01T03:02:58;11.80;99.90
43099;DHT22;28715;51.988;6.020;2023-04-01T03:05:24;11.80;99.90
43099;DHT22;28715;51.988;6.020;2023-04-01T03:07:49;11.80;99.90
43099;DHT22;28715;51.988;6.020;2023-04-01T03:10:15;11.80;99.90
43099;DHT22;28715;51.988;6.020;2023-04-01T03:12:41;11.80;99.90
43099;DHT22;28715;51.988;6.020;2023-04-01T03:15:08;11.80;99.90
43099;DHT22;28715;51.988;6.020;2023-04-01T03:17:35;11.80;99.90
43099;DHT22;28715;51.988;6.020;2023-04-01T03:20:00;11.80;99.90
43099;DHT22;28715;51.988;6.020;2023-04-01T03:22:26;11.70;99.90
43099;DHT22;28715;51.988;6.020;2023-04-01T03:24:51;11.70;99.90
43099;DHT22;28715;51.988;6.020;2023-04-01T03:27:17;11.70;99.90
43099;DHT22;28715;51.988;6.020;2023-04-01T03:29:43;11.60;99.90
43099;DHT22;28715;51.988;6.020;2023-04-01T03:32:08;11.60;99.90
43099;DHT22;28715;51.988;6.020;2023-04-01T03:34:34;11.60;99.90
43099;DHT22;28715;51.988;6.020;2023-04-01T03:36:59;11.60;99.90
43099;DHT22;28715;51.988;6.020;2023-04-01T03:39:25;11.60;99.90
43099;DHT22;28715;51.988;6.020;2023-04-01T03:41:51;11.60;99.90
43099;DHT22;28715;51.988;6.020;2023-04-01T03:44:17;11.60;99.90
43099;DHT22;28715;51.988;6.020;2023-04-01T03:46:42;11.50;99.90
43099;DHT22;28715;51.988;6.020;2023-04-01T03:49:09;11.50;99.90
43099;DHT22;28715;51.988;6.020;2023-04-01T03:51:38;11.50;99.90
43099;DHT22;28715;51.988;6.020;2023-04-01T03:54:04;11.50;99.90
43099;DHT22;28715;51.988;6.020;2023-04-01T03:56:30;11.40;99.90
43099;DHT22;28715;51.988;6.020;2023-04-01T03:58:56;11.40;99.90
43099;DHT22;28715;51.988;6.020;2023-04-01T04:01:22;11.40;99.90
43099;DHT22;28715;51.988;6.020;2023-04-01T04:03:49;11.50;99.90
43099;DHT22;28715;51.988;6.020;2023-04-01T04:06:17;11.40;99.90
43099;DHT22;28715;51.988;6.020;2023-04-01T04:08:43;11.40;99.90
43099;DHT22;28715;51.988;6.020;2023-04-01T04:11:09;11.40;99.90
43099;DHT22;28715;51.988;6.020;2023-04-01T04:13:35;11.40;99.90
43099;DHT22;28715;51.988;6.020;2023-04-01T04:16:02;11.40;99.90
43099;DHT22;28715;51.988;6.020;2023-04-01T04:18:27;11.40;99.90
43099;DHT22;28715;51.988;6.020;2023-04-01T04:20:53;11.50;99.90
43099;DHT22;28715;51.988;6.020;2023-04-01T04:23:18;11.40;99.90
43099;DHT22;28715;51.988;6.020;2023-04-01T04:25:59;11.40;99.90
43099;DHT22;28715;51.988;6.020;2023-04-01T04:28:26;11.40;99.90
43099;DHT22;28715;51.988;6.020;2023-04-01T04:30:52;11.40;99.90
43099;DHT22;28715;51.988;6.020;2023-04-01T04:33:18;11.40;99.90
43099;DHT22;28715;51.988;6.020;2023-04-01T04:35:43;11.40;99.90
43099;DHT22;28715;51.988;6.020;2023-04-01T04:38:09;11.40;99.90
43099;DHT22;28715;51.988;6.020;2023-04-01T04:40:39;11.40;99.90
43099;DHT22;28715;51.988;6.020;2023-04-01T04:43:05;11.40;99.90
43099;DHT22;28715;51.988;6.020;2023-04-01T04:45:31;11.50;99.90
43099;DHT22;28715;51.988;6.020;2023-04-01T04:47:56;11.40;99.90
43099;DHT22;28715;51.988;6.020;2023-04-01T04:50:23;11.50;99.90
43099;DHT22;28715;51.988;6.020;2023-04-01T04:52:49;11.40;99.90
43099;DHT22;28715;51.988;6.020;2023-04-01T04:55:14;11.40;99.90
43099;DHT22;28715;51.988;6.020;2023-04-01T04:57:40;11.50;99.90
43099;DHT22;28715;51.988;6.020;2023-04-01T05:00:06;11.50;99.90
43099;DHT22;28715;51.988;6.020;2023-04-01T05:02:33;11.50;99.90
43099;DHT22;28715;51.988;6.020;2023-04-01T05:04:58;11.50;99.90
43099;DHT22;28715;51.988;6.020;2023-04-01T05:07:24;11.50;99.90
43099;DHT22;28715;51.988;6.020;2023-04-01T05:09:50;11.50;99.90
43099;DHT22;28715;51.988;6.020;2023-04-01T05:12:15;11.60;99.90
43099;DHT22;28715;51.988;6.020;2023-04-01T05:14:41;11.60;99.90
43099;DHT22;28715;51.988;6.020;2023-04-01T05:17:13;11.60;99.90
43099;DHT22;28715;51.988;6.020;2023-04-01T05:19:39;11.60;99.90
43099;DHT22;28715;51.988;6.020;2023-04-01T05:22:05;11.60;99.90
43099;DHT22;28715;51.988;6.020;2023-04-01T05:24:32;11.60;99.90
43099;DHT22;28715;51.988;6.020;2023-04-01T05:26:58;11.60;99.90
43099;DHT22;28715;51.988;6.020;2023-04-01T05:29:25;11.60;99.90
43099;DHT22;28715;51.988;6.020;2023-04-01T05:31:51;11.60;99.90
43099;DHT22;28715;51.988;6.020;2023-04-01T05:34:16;11.70;99.90
43099;DHT22;28715;51.988;6.020;2023-04-01T05:36:42;11.70;99.90
43099;DHT22;28715;51.988;6.020;2023-04-01T05:39:08;11.70;99.90
43099;DHT22;28715;51.988;6.020;2023-04-01T05:41:37;11.70;99.90
43099;DHT22;28715;51.988;6.020;2023-04-01T05:44:03;11.70;99.90
43099;DHT22;28715;51.988;6.020;2023-04-01T05:46:30;11.80;99.90
43099;DHT22;28715;51.988;6.020;2023-04-01T05:48:55;11.70;99.90
43099;DHT22;28715;51.988;6.020;2023-04-01T05:51:21;11.80;99.90
43099;DHT22;28715;51.988;6.020;2023-04-01T05:53:47;11.80;99.90
43099;DHT22;28715;51.988;6.020;2023-04-01T05:56:13;11.80;99.90
43099;DHT22;28715;51.988;6.020;2023-04-01T05:58:39;11.80;99.90
43099;DHT22;28715;51.988;6.020;2023-04-01T06:01:10;11.90;99.90
43099;DHT22;28715;51.988;6.020;2023-04-01T06:03:36;11.90;99.90
43099;DHT22;28715;51.988;6.020;2023-04-01T06:06:02;11.90;99.90
43099;DHT22;28715;51.988;6.020;2023-04-01T06:08:31;11.90;99.90
43099;DHT22;28715;51.988;6.020;2023-04-01T06:11:17;11.90;99.90
43099;DHT22;28715;51.988;6.020;2023-04-01T06:19:51;11.90;99.90
43099;DHT22;28715;51.988;6.020;2023-04-01T06:22:27;11.80;99.90
43099;DHT22;28715;51.988;6.020;2023-04-01T06:25:18;11.70;99.90
43099;DHT22;28715;51.988;6.020;2023-04-01T06:30:49;11.60;99.90
43099;DHT22;28715;51.988;6.020;2023-04-01T06:41:39;11.50;99.90
43099;DHT22;28715;51.988;6.020;2023-04-01T06:49:47;11.50;99.90
43099;DHT22;28715;51.988;6.020;2023-04-01T06:54:53;11.50;99.90
43099;DHT22;28715;51.988;6.020;2023-04-01T06:57:27;11.60;99.90
43099;DHT22;28715;51.988;6.020;2023-04-01T06:59:55;11.60;99.90
43099;DHT22;28715;51.988;6.020;2023-04-01T07:02:47;11.70;99.90
43099;DHT22;28715;51.988;6.020;2023-04-01T07:05:15;11.80;99.90
43099;DHT22;28715;51.988;6.020;2023-04-01T07:08:11;11.80;99.90
43099;DHT22;28715;51.988;6.020;2023-04-01T07:10:56;11.80;99.90
43099;DHT22;28715;51.988;6.020;2023-04-01T07:13:45;11.90;99.90
43099;DHT22;28715;51.988;6.020;2023-04-01T07:16:19;11.90;99.90
43099;DHT22;28715;51.988;6.020;2023-04-01T07:19:18;11.90;99.90
43099;DHT22;28715;51.988;6.020;2023-04-01T07:21:52;12.00;99.90
43099;DHT22;28715;51.988;6.020;2023-04-01T07:24:40;12.00;99.90
43099;DHT22;28715;51.988;6.020;2023-04-01T07:27:13;12.00;99.90
43099;DHT22;28715;51.988;6.020;2023-04-01T07:29:39;12.10;99.90
43099;DHT22;28715;51.988;6.020;2023-04-01T07:41:04;12.40;99.90
43099;DHT22;28715;51.988;6.020;2023-04-01T07:43:53;12.50;99.90
43099;DHT22;28715;51.988;6.020;2023-04-01T07:54:57;12.70;99.90
43099;DHT22;28715;51.988;6.020;2023-04-01T07:58:00;12.80;99.90
43099;DHT22;28715;51.988;6.020;2023-04-01T08:00:42;12.80;99.90
43099;DHT22;28715;51.988;6.020;2023-04-01T08:09:20;12.90;99.90
43099;DHT22;28715;51.988;6.020;2023-04-01T08:11:54;12.90;99.90
43099;DHT22;28715;51.988;6.020;2023-04-01T08:15:00;12.90;99.90
43099;DHT22;28715;51.988;6.020;2023-04-01T08:23:03;12.90;99.90
43099;DHT22;28715;51.988;6.020;2023-04-01T08:25:32;12.90;99.90
43099;DHT22;28715;51.988;6.020;2023-04-01T08:28:19;12.80;99.90
43099;DHT22;28715;51.988;6.020;2023-04-01T08:30:57;12.90;99.90
43099;DHT22;28715;51.988;6.020;2023-04-01T08:33:26;12.90;99.90
43099;DHT22;28715;51.988;6.020;2023-04-01T08:36:16;13.00;99.90
43099;DHT22;28715;51.988;6.020;2023-04-01T08:38:43;13.10;99.90
43099;DHT22;28715;51.988;6.020;2023-04-01T08:44:30;13.20;99.90
43099;DHT22;28715;51.988;6.020;2023-04-01T08:47:29;13.20;99.90
43099;DHT22;28715;51.988;6.020;2023-04-01T08:53:07;13.30;99.90
43099;DHT22;28715;51.988;6.020;2023-04-01T08:58:32;13.20;99.90
43099;DHT22;28715;51.988;6.020;2023-04-01T09:09:56;13.20;99.90
43099;DHT22;28715;51.988;6.020;2023-04-01T09:16:13;13.30;99.90
43099;DHT22;28715;51.988;6.020;2023-04-01T09:19:11;13.30;99.90
43099;DHT22;28715;51.988;6.020;2023-04-01T09:22:09;13.30;99.90
43099;DHT22;28715;51.988;6.020;2023-04-01T09:27:43;13.20;99.90
43099;DHT22;28715;51.988;6.020;2023-04-01T09:38:29;13.30;99.90
43099;DHT22;28715;51.988;6.020;2023-04-01T09:49:09;13.20;99.90
43099;DHT22;28715;51.988;6.020;2023-04-01T09:54:57;13.20;99.90
43099;DHT22;28715;51.988;6.020;2023-04-01T10:03:21;12.90;99.90
43099;DHT22;28715;51.988;6.020;2023-04-01T10:06:37;12.80;99.90
43099;DHT22;28715;51.988;6.020;2023-04-01T10:09:48;12.80;99.90
43099;DHT22;28715;51.988;6.020;2023-04-01T10:18:18;12.70;99.90
43099;DHT22;28715;51.988;6.020;2023-04-01T10:21:12;12.70;99.90
43099;DHT22;28715;51.988;6.020;2023-04-01T10:26:51;12.70;99.90
43099;DHT22;28715;51.988;6.020;2023-04-01T10:32:21;12.70;99.90
43099;DHT22;28715;51.988;6.020;2023-04-01T10:37:56;12.80;99.90
43099;DHT22;28715;51.988;6.020;2023-04-01T10:40:36;12.90;99.90
43099;DHT22;28715;51.988;6.020;2023-04-01T11:06:26;13.20;99.90
43099;DHT22;28715;51.988;6.020;2023-04-01T11:11:59;13.30;99.90
43099;DHT22;28715;51.988;6.020;2023-04-01T11:20:39;13.40;99.90
43099;DHT22;28715;51.988;6.020;2023-04-01T11:26:50;13.40;99.90
43099;DHT22;28715;51.988;6.020;2023-04-01T11:37:33;13.10;99.90
43099;DHT22;28715;51.988;6.020;2023-04-01T11:40:19;13.10;99.90
43099;DHT22;28715;51.988;6.020;2023-04-01T11:42:57;13.10;99.90
43099;DHT22;28715;51.988;6.020;2023-04-01T11:50:53;13.00;99.90
43099;DHT22;28715;51.988;6.020;2023-04-01T11:53:47;13.10;99.90
43099;DHT22;28715;51.988;6.020;2023-04-01T12:09:57;13.20;99.90
43099;DHT22;28715;51.988;6.020;2023-04-01T12:20:36;13.50;99.90
43099;DHT22;28715;51.988;6.020;2023-04-01T12:26:22;13.60;99.90
43099;DHT22;28715;51.988;6.020;2023-04-01T12:31:59;13.70;99.90
43099;DHT22;28715;51.988;6.020;2023-04-01T12:37:58;13.70;99.90
43099;DHT22;28715;51.988;6.020;2023-04-01T12:43:50;13.70;99.90
43099;DHT22;28715;51.988;6.020;2023-04-01T12:52:09;13.60;99.90
43099;DHT22;28715;51.988;6.020;2023-04-01T12:57:23;13.60;99.90
43099;DHT22;28715;51.988;6.020;2023-04-01T13:00:12;13.70;99.90
43099;DHT22;28715;51.988;6.020;2023-04-01T13:03:06;13.70;99.90
43099;DHT22;28715;51.988;6.020;2023-04-01T13:08:53;13.80;99.90
43099;DHT22;28715;51.988;6.020;2023-04-01T13:19:38;14.00;99.90
43099;DHT22;28715;51.988;6.020;2023-04-01T13:22:17;14.00;99.90
43099;DHT22;28715;51.988;6.020;2023-04-01T13:24:52;14.10;99.90
43099;DHT22;28715;51.988;6.020;2023-04-01T13:27:37;14.10;99.90
43099;DHT22;28715;51.988;6.020;2023-04-01T13:30:21;14.20;99.90
43099;DHT22;28715;51.988;6.020;2023-04-01T13:33:01;14.20;99.90
43099;DHT22;28715;51.988;6.020;2023-04-01T13:44:16;13.90;99.90
43099;DHT22;28715;51.988;6.020;2023-04-01T13:47:00;13.90;99.90
43099;DHT22;28715;51.988;6.020;2023-04-01T13:52:44;13.90;99.90
43099;DHT22;28715;51.988;6.020;2023-04-01T14:01:15;13.90;99.90
43099;DHT22;28715;51.988;6.020;2023-04-01T14:04:32;13.90;99.90
43099;DHT22;28715;51.988;6.020;2023-04-01T14:06:44;13.90;99.90
43099;DHT22;28715;51.988;6.020;2023-04-01T14:09:29;13.90;99.90
43099;DHT22;28715;51.988;6.020;2023-04-01T14:20:22;13.80;99.90
43099;DHT22;28715;51.988;6.020;2023-04-01T14:23:05;13.80;99.90
43099;DHT22;28715;51.988;6.020;2023-04-01T14:28:35;13.80;99.90
43099;DHT22;28715;51.988;6.020;2023-04-01T14:34:24;13.90;99.90
43099;DHT22;28715;51.988;6.020;2023-04-01T14:37:11;13.80;99.90
43099;DHT22;28715;51.988;6.020;2023-04-01T14:39:57;13.90;99.90
43099;DHT22;28715;51.988;6.020;2023-04-01T14:42:41;13.90;99.90
43099;DHT22;28715;51.988;6.020;2023-04-01T14:45:33;13.90;99.90
43099;DHT22;28715;51.988;6.020;2023-04-01T14:50:51;14.00;99.90
43099;DHT22;28715;51.988;6.020;2023-04-01T14:53:30;14.00;99.90
43099;DHT22;28715;51.988;6.020;2023-04-01T14:55:59;14.10;99.90
43099;DHT22;28715;51.988;6.020;2023-04-01T15:03:39;14.10;99.90
43099;DHT22;28715;51.988;6.020;2023-04-01T15:12:46;14.30;99.90
43099;DHT22;28715;51.988;6.020;2023-04-01T15:26:37;14.20;99.90
43099;DHT22;28715;51.988;6.020;2023-04-01T15:32:25;13.70;99.90
43099;DHT22;28715;51.988;6.020;2023-04-01T15:37:57;13.50;99.90
43099;DHT22;28715;51.988;6.020;2023-04-01T15:43:40;13.30;99.90
43099;DHT22;28715;51.988;6.020;2023-04-01T15:51:54;13.00;99.90
43099;DHT22;28715;51.988;6.020;2023-04-01T15:54:50;13.00;99.90
43099;DHT22;28715;51.988;6.020;2023-04-01T15:57:31;12.90;99.90
43099;DHT22;28715;51.988;6.020;2023-04-01T16:02:34;12.70;99.90
43099;DHT22;28715;51.988;6.020;2023-04-01T16:05:32;12.70;99.90
43099;DHT22;28715;51.988;6.020;2023-04-01T16:21:40;12.50;99.90
43099;DHT22;28715;51.988;6.020;2023-04-01T16:27:29;12.50;99.90
43099;DHT22;28715;51.988;6.020;2023-04-01T16:30:37;12.50;99.90
43099;DHT22;28715;51.988;6.020;2023-04-01T16:33:18;12.40;99.90
43099;DHT22;28715;51.988;6.020;2023-04-01T16:35:58;12.40;99.90
43099;DHT22;28715;51.988;6.020;2023-04-01T16:41:33;12.20;99.90
43099;DHT22;28715;51.988;6.020;2023-04-01T16:44:24;12.10;99.90
43099;DHT22;28715;51.988;6.020;2023-04-01T16:49:52;12.00;99.90
43099;DHT22;28715;51.988;6.020;2023-04-01T16:55:55;11.80;99.90
43099;DHT22;28715;51.988;6.020;2023-04-01T16:58:33;11.70;99.90
43099;DHT22;28715;51.988;6.020;2023-04-01T17:03:43;11.50;99.90
43099;DHT22;28715;51.988;6.020;2023-04-01T17:12:13;11.40;99.90
43099;DHT22;28715;51.988;6.020;2023-04-01T17:21:00;11.10;99.90
43099;DHT22;28715;51.988;6.020;2023-04-01T17:23:43;11.10;99.90
43099;DHT22;28715;51.988;6.020;2023-04-01T17:32:11;11.00;99.90
43099;DHT22;28715;51.988;6.020;2023-04-01T17:34:53;11.00;99.90
43099;DHT22;28715;51.988;6.020;2023-04-01T17:37:45;11.00;99.90
43099;DHT22;28715;51.988;6.020;2023-04-01T17:43:32;11.00;99.90
43099;DHT22;28715;51.988;6.020;2023-04-01T17:46:35;11.00;99.90
43099;DHT22;28715;51.988;6.020;2023-04-01T17:49:45;10.90;99.90
43099;DHT22;28715;51.988;6.020;2023-04-01T17:57:43;10.70;99.90
43099;DHT22;28715;51.988;6.020;2023-04-01T18:00:26;10.70;99.90
43099;DHT22;28715;51.988;6.020;2023-04-01T18:14:45;10.30;99.90
43099;DHT22;28715;51.988;6.020;2023-04-01T18:17:25;10.40;99.90
43099;DHT22;28715;51.988;6.020;2023-04-01T18:28:32;10.30;99.90
43099;DHT22;28715;51.988;6.020;2023-04-01T18:36:44;10.10;99.90
43099;DHT22;28715;51.988;6.020;2023-04-01T18:39:38;10.10;99.90
43099;DHT22;28715;51.988;6.020;2023-04-01T18:42:33;10.10;99.90
43099;DHT22;28715;51.988;6.020;2023-04-01T18:45:21;10.10;99.90
43099;DHT22;28715;51.988;6.020;2023-04-01T18:48:15;10.10;99.90
43099;DHT22;28715;51.988;6.020;2023-04-01T18:50:50;10.00;99.90
43099;DHT22;28715;51.988;6.020;2023-04-01T18:56:00;9.90;99.90
43099;DHT22;28715;51.988;6.020;2023-04-01T19:04:47;9.80;99.90
43099;DHT22;28715;51.988;6.020;2023-04-01T19:13:07;9.70;99.90
43099;DHT22;28715;51.988;6.020;2023-04-01T19:21:44;9.70;99.90
43099;DHT22;28715;51.988;6.020;2023-04-01T19:27:11;9.70;99.90
43099;DHT22;28715;51.988;6.020;2023-04-01T19:38:31;9.50;99.90
43099;DHT22;28715;51.988;6.020;2023-04-01T19:41:16;9.50;99.90
43099;DHT22;28715;51.988;6.020;2023-04-01T20:00:56;9.20;99.90
43099;DHT22;28715;51.988;6.020;2023-04-01T20:03:49;9.20;99.90
43099;DHT22;28715;51.988;6.020;2023-04-01T20:06:38;9.20;99.90
43099;DHT22;28715;51.988;6.020;2023-04-01T20:09:26;9.10;99.90
43099;DHT22;28715;51.988;6.020;2023-04-01T20:17:48;9.10;99.90
43099;DHT22;28715;51.988;6.020;2023-04-01T20:25:26;9.00;99.90
43099;DHT22;28715;51.988;6.020;2023-04-01T20:27:58;8.90;99.90
43099;DHT22;28715;51.988;6.020;2023-04-01T20:44:12;8.70;99.90
43099;DHT22;28715;51.988;6.020;2023-04-01T20:49:39;8.70;99.90
43099;DHT22;28715;51.988;6.020;2023-04-01T21:00:00;8.70;99.90
43099;DHT22;28715;51.988;6.020;2023-04-01T21:10:49;8.60;99.90
43099;DHT22;28715;51.988;6.020;2023-04-01T21:13:20;8.60;99.90
43099;DHT22;28715;51.988;6.020;2023-04-01T21:19:09;8.50;99.90
43099;DHT22;28715;51.988;6.020;2023-04-01T21:24:34;8.50;99.90
43099;DHT22;28715;51.988;6.020;2023-04-01T21:27:26;8.50;99.90
43099;DHT22;28715;51.988;6.020;2023-04-01T21:30:19;8.40;99.90
43099;DHT22;28715;51.988;6.020;2023-04-01T21:33:04;8.30;99.90
43099;DHT22;28715;51.988;6.020;2023-04-01T21:43:45;8.30;99.90
43099;DHT22;28715;51.988;6.020;2023-04-01T21:52:28;8.10;99.90
43099;DHT22;28715;51.988;6.020;2023-04-01T22:04:02;7.90;99.90
43099;DHT22;28715;51.988;6.020;2023-04-01T22:06:40;8.00;99.90
43099;DHT22;28715;51.988;6.020;2023-04-01T22:09:21;8.00;99.90
43099;DHT22;28715;51.988;6.020;2023-04-01T22:14:46;8.00;99.90
43099;DHT22;28715;51.988;6.020;2023-04-01T22:23:00;7.90;99.90
43099;DHT22;28715;51.988;6.020;2023-04-01T22:26:04;7.80;99.90
43099;DHT22;28715;51.988;6.020;2023-04-01T22:28:46;7.80;99.90
43099;DHT22;28715;51.988;6.020;2023-04-01T22:31:30;7.80;99.90
43099;DHT22;28715;51.988;6.020;2023-04-01T22:36:55;7.80;99.90
43099;DHT22;28715;51.988;6.020;2023-04-01T22:39:49;7.90;99.90
43099;DHT22;28715;51.988;6.020;2023-04-01T22:47:49;7.90;99.90
43099;DHT22;28715;51.988;6.020;2023-04-01T22:50:26;7.80;99.90
43099;DHT22;28715;51.988;6.020;2023-04-01T22:55:44;7.70;99.90
43099;DHT22;28715;51.988;6.020;2023-04-01T22:58:24;7.70;99.90
43099;DHT22;28715;51.988;6.020;2023-04-01T23:01:01;7.70;99.90
43099;DHT22;28715;51.988;6.020;2023-04-01T23:03:34;7.60;99.90
43099;DHT22;28715;51.988;6.020;2023-04-01T23:06:03;7.60;99.90
43099;DHT22;28715;51.988;6.020;2023-04-01T23:09:07;7.50;99.90
43099;DHT22;28715;51.988;6.020;2023-04-01T23:14:30;7.50;99.90
43099;DHT22;28715;51.988;6.020;2023-04-01T23:17:11;7.50;99.90
43099;DHT22;28715;51.988;6.020;2023-04-01T23:22:52;7.50;99.90
43099;DHT22;28715;51.988;6.020;2023-04-01T23:36:29;7.40;99.90
43099;DHT22;28715;51.988;6.020;2023-04-01T23:38:38;7.40;99.90
43099;DHT22;28715;51.988;6.020;2023-04-01T23:41:08;7.40;99.90
43099;DHT22;28715;51.988;6.020;2023-04-01T23:43:37;7.40;99.90
43099;DHT22;28715;51.988;6.020;2023-04-01T23:46:05;7.40;99.90
43099;DHT22;28715;51.988;6.020;2023-04-01T23:48:37;7.40;99.90
43099;DHT22;28715;51.988;6.020;2023-04-01T23:53:44;7.40;99.90
43099;DHT22;28715;51.988;6.020;2023-04-01T23:56:10;7.30;99.90
43099;DHT22;28715;51.988;6.020;2023-04-01T23:58:51;7.30;99.90
